createdAt,value
2019-03-04T00:00:38.474Z,881.97
2019-03-04T00:01:38.430Z,881.95
2019-03-04T00:03:33.297Z,881.87
2019-03-04T00:04:33.259Z,881.88
2019-03-04T00:06:28.153Z,881.86
2019-03-04T00:07:28.091Z,881.81
2019-03-04T00:09:22.720Z,881.81
2019-03-04T00:10:22.686Z,881.80
2019-03-04T00:12:17.556Z,881.80
2019-03-04T00:13:17.528Z,881.82
2019-03-04T00:15:12.353Z,881.83
2019-03-04T00:16:12.315Z,881.89
2019-03-04T00:18:07.192Z,881.96
2019-03-04T00:19:07.144Z,881.92
2019-03-04T00:21:02.004Z,881.92
2019-03-04T00:22:01.972Z,881.90
2019-03-04T00:24:01.173Z,881.98
2019-03-04T00:25:01.133Z,882.01
2019-03-04T00:26:01.112Z,882.05
2019-03-04T00:27:01.097Z,882.04
2019-03-04T00:28:01.084Z,882.01
2019-03-04T00:29:01.072Z,882.03
2019-03-04T00:30:01.057Z,882.10
2019-03-04T00:31:01.038Z,882.10
2019-03-04T00:32:01.024Z,882.04
2019-03-04T00:33:01.012Z,882.07
2019-03-04T00:34:00.990Z,882.04
2019-03-04T00:35:00.979Z,882.10
2019-03-04T00:36:00.965Z,882.09
2019-03-04T00:37:00.951Z,882.07
2019-03-04T00:38:00.931Z,882.10
2019-03-04T00:39:00.917Z,882.12
2019-03-04T00:40:00.901Z,882.14
2019-03-04T00:41:00.932Z,882.11
2019-03-04T00:42:00.868Z,882.09
2019-03-04T00:43:00.854Z,882.11
2019-03-04T00:44:00.844Z,882.11
2019-03-04T00:45:00.856Z,882.11
2019-03-04T00:46:00.809Z,882.09
2019-03-04T00:47:00.793Z,882.09
2019-03-04T00:48:00.783Z,882.06
2019-03-04T00:49:00.767Z,882.03
2019-03-04T00:50:00.756Z,882.05
2019-03-04T00:51:00.743Z,882.05
2019-03-04T00:52:00.722Z,882.07
2019-03-04T00:53:00.712Z,882.05
2019-03-04T00:54:00.689Z,882.06
2019-03-04T00:55:00.674Z,882.10
2019-03-04T00:56:00.661Z,882.13
2019-03-04T00:57:00.648Z,882.08
2019-03-04T00:58:00.628Z,882.07
2019-03-04T00:59:00.614Z,882.06
2019-03-04T01:00:00.603Z,882.03
2019-03-04T01:01:00.586Z,882.03
2019-03-04T01:02:00.569Z,881.96
2019-03-04T01:03:00.558Z,882.02
2019-03-04T01:04:00.549Z,882.05
2019-03-04T01:05:00.525Z,882.05
2019-03-04T01:06:00.507Z,882.04
2019-03-04T01:07:00.506Z,882.02
2019-03-04T01:08:00.541Z,882.00
2019-03-04T01:09:00.467Z,882.00
2019-03-04T01:10:00.450Z,881.98
2019-03-04T01:11:00.434Z,881.94
2019-03-04T01:12:00.423Z,881.94
2019-03-04T01:13:00.407Z,881.97
2019-03-04T01:14:00.388Z,881.99
2019-03-04T01:15:00.370Z,881.97
2019-03-04T01:16:00.358Z,881.92
2019-03-04T01:17:00.347Z,881.88
2019-03-04T01:18:00.332Z,881.85
2019-03-04T01:19:00.314Z,881.81
2019-03-04T01:20:00.355Z,881.78
2019-03-04T01:21:00.280Z,881.74
2019-03-04T01:22:00.264Z,881.69
2019-03-04T01:23:00.251Z,881.65
2019-03-04T01:24:00.239Z,881.65
2019-03-04T01:25:00.283Z,881.62
2019-03-04T01:26:00.209Z,881.59
2019-03-04T01:27:00.190Z,881.65
2019-03-04T01:28:00.181Z,881.65
2019-03-04T01:29:00.164Z,881.68
2019-03-04T01:30:00.148Z,881.64
2019-03-04T01:31:00.136Z,881.57
2019-03-04T01:32:00.118Z,881.58
2019-03-04T01:33:00.103Z,881.57
2019-03-04T01:34:00.088Z,881.59
2019-03-04T01:35:00.290Z,881.59
2019-03-04T01:36:00.057Z,881.62
2019-03-04T01:37:00.040Z,881.61
2019-03-04T01:38:00.017Z,881.61
2019-03-04T01:39:00.005Z,881.61
2019-03-04T01:39:59.992Z,881.62
2019-03-04T01:40:59.978Z,881.67
2019-03-04T01:41:59.963Z,881.67
2019-03-04T01:42:59.946Z,881.69
2019-03-04T01:43:59.939Z,881.73
2019-03-04T01:44:59.919Z,881.67
2019-03-04T01:45:59.905Z,881.62
2019-03-04T01:46:59.892Z,881.56
2019-03-04T01:47:59.870Z,881.55
2019-03-04T01:48:59.852Z,881.57
2019-03-04T01:49:59.843Z,881.51
2019-03-04T01:50:59.829Z,881.53
2019-03-04T01:51:59.808Z,881.52
2019-03-04T01:52:59.792Z,881.50
2019-03-04T01:53:59.781Z,881.51
2019-03-04T01:54:59.769Z,881.49
2019-03-04T01:55:59.747Z,881.45
2019-03-04T01:56:59.737Z,881.43
2019-03-04T01:57:59.718Z,881.41
2019-03-04T01:58:59.701Z,881.39
2019-03-04T01:59:59.685Z,881.30
2019-03-04T02:00:59.677Z,881.30
2019-03-04T02:01:59.664Z,881.24
2019-03-04T02:02:59.641Z,881.22
2019-03-04T02:03:59.628Z,881.18
2019-03-04T02:04:59.611Z,881.18
2019-03-04T02:05:59.599Z,881.15
2019-03-04T02:06:59.582Z,881.18
2019-03-04T02:07:59.564Z,881.13
2019-03-04T02:08:59.551Z,881.11
2019-03-04T02:09:59.537Z,881.06
2019-03-04T02:10:59.580Z,880.99
2019-03-04T02:11:59.507Z,880.97
2019-03-04T02:12:59.498Z,880.97
2019-03-04T02:13:59.478Z,881.00
2019-03-04T02:14:59.456Z,881.00
2019-03-04T02:15:59.449Z,880.96
2019-03-04T02:16:59.430Z,880.93
2019-03-04T02:17:59.408Z,880.89
2019-03-04T02:18:59.401Z,880.85
2019-03-04T02:19:59.380Z,880.90
2019-03-04T02:20:59.367Z,880.85
2019-03-04T02:21:59.355Z,880.79
2019-03-04T02:22:59.339Z,880.80
2019-03-04T02:23:59.325Z,880.77
2019-03-04T02:24:59.303Z,880.71
2019-03-04T02:25:59.288Z,880.65
2019-03-04T02:26:59.280Z,880.64
2019-03-04T02:27:59.260Z,880.65
2019-03-04T02:28:59.251Z,880.63
2019-03-04T02:29:59.227Z,880.60
2019-03-04T02:30:59.215Z,880.64
2019-03-04T02:31:59.198Z,880.59
2019-03-04T02:32:59.183Z,880.62
2019-03-04T02:33:59.167Z,880.62
2019-03-04T02:34:59.154Z,880.62
2019-03-04T02:35:59.148Z,880.59
2019-03-04T02:36:59.129Z,880.53
2019-03-04T02:37:59.109Z,880.49
2019-03-04T02:38:59.092Z,880.42
2019-03-04T02:39:59.079Z,880.35
2019-03-04T02:40:59.064Z,880.28
2019-03-04T02:41:59.051Z,880.27
2019-03-04T02:42:59.029Z,880.25
2019-03-04T02:43:59.013Z,880.17
2019-03-04T02:44:59.000Z,880.16
2019-03-04T02:45:58.983Z,880.14
2019-03-04T02:46:58.964Z,880.18
2019-03-04T02:47:58.952Z,880.14
2019-03-04T02:48:58.939Z,880.14
2019-03-04T02:49:58.921Z,880.16
2019-03-04T02:50:58.910Z,880.11
2019-03-04T02:51:58.890Z,880.09
2019-03-04T02:52:58.878Z,880.03
2019-03-04T02:53:58.859Z,880.02
2019-03-04T02:54:58.848Z,880.03
2019-03-04T02:55:58.831Z,880.04
2019-03-04T02:56:58.824Z,879.98
2019-03-04T02:57:58.815Z,879.93
2019-03-04T02:58:58.788Z,879.88
2019-03-04T02:59:58.775Z,879.80
2019-03-04T03:00:58.754Z,879.71
2019-03-04T03:01:58.739Z,879.61
2019-03-04T03:02:58.723Z,879.61
2019-03-04T03:03:58.707Z,879.58
2019-03-04T03:04:58.691Z,879.55
2019-03-04T03:05:58.675Z,879.53
2019-03-04T03:06:58.662Z,879.51
2019-03-04T03:07:58.644Z,879.53
2019-03-04T03:08:58.652Z,879.46
2019-03-04T03:09:58.622Z,879.45
2019-03-04T03:10:58.599Z,879.45
2019-03-04T03:11:58.586Z,879.33
2019-03-04T03:12:58.569Z,879.33
2019-03-04T03:13:58.554Z,879.32
2019-03-04T03:14:58.538Z,879.32
2019-03-04T03:15:58.521Z,879.29
2019-03-04T03:16:58.508Z,879.30
2019-03-04T03:17:58.489Z,879.30
2019-03-04T03:18:58.476Z,879.19
2019-03-04T03:19:58.463Z,879.15
2019-03-04T03:20:58.448Z,879.13
2019-03-04T03:21:58.455Z,879.12
2019-03-04T03:22:58.412Z,879.08
2019-03-04T03:23:59.523Z,879.11
2019-03-04T03:24:58.422Z,879.16
2019-03-04T03:25:58.368Z,879.16
2019-03-04T03:26:58.361Z,879.12
2019-03-04T03:27:58.344Z,879.11
2019-03-04T03:28:58.324Z,879.07
2019-03-04T03:29:58.312Z,879.12
2019-03-04T03:30:58.301Z,879.10
2019-03-04T03:31:58.282Z,879.13
2019-03-04T03:32:58.264Z,879.19
2019-03-04T03:33:58.249Z,879.27
2019-03-04T03:34:58.237Z,879.35
2019-03-04T03:35:58.213Z,879.38
2019-03-04T03:36:58.199Z,879.50
2019-03-04T03:37:58.182Z,879.57
2019-03-04T03:38:58.175Z,879.66
2019-03-04T03:39:58.151Z,879.74
2019-03-04T03:40:58.138Z,879.75
2019-03-04T03:41:58.121Z,879.75
2019-03-04T03:42:58.106Z,879.73
2019-03-04T03:43:58.095Z,879.72
2019-03-04T03:44:58.075Z,879.78
2019-03-04T03:45:58.058Z,879.77
2019-03-04T03:46:58.046Z,879.82
2019-03-04T03:47:58.023Z,879.83
2019-03-04T03:48:58.018Z,879.79
2019-03-04T03:49:58.001Z,879.74
2019-03-04T03:50:57.978Z,879.74
2019-03-04T03:51:57.976Z,879.82
2019-03-04T03:52:57.959Z,879.89
2019-03-04T03:53:57.938Z,879.92
2019-03-04T03:54:57.920Z,879.91
2019-03-04T03:55:57.906Z,879.77
2019-03-04T03:56:57.884Z,879.70
2019-03-04T03:57:57.872Z,879.64
2019-03-04T03:58:57.858Z,879.65
2019-03-04T03:59:57.837Z,879.61
2019-03-04T04:00:57.826Z,879.53
2019-03-04T04:01:57.809Z,879.49
2019-03-04T04:02:57.793Z,879.44
2019-03-04T04:03:57.780Z,879.47
2019-03-04T04:04:57.769Z,879.48
2019-03-04T04:05:57.747Z,879.38
2019-03-04T04:06:57.731Z,879.39
2019-03-04T04:07:57.717Z,879.40
2019-03-04T04:08:57.702Z,879.37
2019-03-04T04:09:57.692Z,879.29
2019-03-04T04:10:57.669Z,879.21
2019-03-04T04:11:57.655Z,879.18
2019-03-04T04:12:57.637Z,879.16
2019-03-04T04:13:57.621Z,879.17
2019-03-04T04:14:57.607Z,879.17
2019-03-04T04:15:57.593Z,879.13
2019-03-04T04:16:57.572Z,879.09
2019-03-04T04:17:57.563Z,879.09
2019-03-04T04:18:57.542Z,879.04
2019-03-04T04:19:57.527Z,879.09
2019-03-04T04:20:57.514Z,879.06
2019-03-04T04:21:57.498Z,878.94
2019-03-04T04:22:57.480Z,878.87
2019-03-04T04:23:57.467Z,878.83
2019-03-04T04:24:57.449Z,878.79
2019-03-04T04:25:57.431Z,878.75
2019-03-04T04:26:57.413Z,878.66
2019-03-04T04:27:57.398Z,878.66
2019-03-04T04:28:57.381Z,878.65
2019-03-04T04:29:57.368Z,878.61
2019-03-04T04:30:57.350Z,878.65
2019-03-04T04:31:57.337Z,878.68
2019-03-04T04:32:57.320Z,878.64
2019-03-04T04:33:57.305Z,878.58
2019-03-04T04:34:57.291Z,878.55
2019-03-04T04:35:57.272Z,878.58
2019-03-04T04:36:57.260Z,878.64
2019-03-04T04:37:57.241Z,878.44
2019-03-04T04:38:57.224Z,878.43
2019-03-04T04:39:57.211Z,878.38
2019-03-04T04:40:57.199Z,878.38
2019-03-04T04:41:57.182Z,878.38
2019-03-04T04:42:57.161Z,878.33
2019-03-04T04:43:57.147Z,878.34
2019-03-04T04:44:57.133Z,878.29
2019-03-04T04:45:57.108Z,878.30
2019-03-04T04:46:57.095Z,878.25
2019-03-04T04:47:57.081Z,878.25
2019-03-04T04:48:57.071Z,878.28
2019-03-04T04:49:57.052Z,878.29
2019-03-04T04:50:57.032Z,878.30
2019-03-04T04:51:57.023Z,878.27
2019-03-04T04:52:57.000Z,878.21
2019-03-04T04:53:56.991Z,878.21
2019-03-04T04:54:57.018Z,878.11
2019-03-04T04:55:56.951Z,878.11
2019-03-04T04:56:56.941Z,878.10
2019-03-04T04:57:56.923Z,878.02
2019-03-04T04:58:56.913Z,877.96
2019-03-04T04:59:56.889Z,877.84
2019-03-04T05:00:56.879Z,877.85
2019-03-04T05:01:56.867Z,877.80
2019-03-04T05:02:56.843Z,877.77
2019-03-04T05:03:56.831Z,877.79
2019-03-04T05:04:56.816Z,877.84
2019-03-04T05:05:56.801Z,877.80
2019-03-04T05:06:56.781Z,877.78
2019-03-04T05:07:56.764Z,877.75
2019-03-04T05:08:56.756Z,877.69
2019-03-04T05:09:56.735Z,877.69
2019-03-04T05:10:56.724Z,877.70
2019-03-04T05:11:56.705Z,877.68
2019-03-04T05:12:56.694Z,877.65
2019-03-04T05:13:56.669Z,877.63
2019-03-04T05:14:56.659Z,877.62
2019-03-04T05:15:56.641Z,877.55
2019-03-04T05:16:56.624Z,877.55
2019-03-04T05:17:56.611Z,877.51
2019-03-04T05:18:56.600Z,877.48
2019-03-04T05:19:56.576Z,877.43
2019-03-04T05:20:56.565Z,877.44
2019-03-04T05:21:56.546Z,877.44
2019-03-04T05:22:56.544Z,877.42
2019-03-04T05:23:56.513Z,877.39
2019-03-04T05:24:56.497Z,877.36
2019-03-04T05:25:56.490Z,877.30
2019-03-04T05:26:56.465Z,877.28
2019-03-04T05:27:56.460Z,877.25
2019-03-04T05:28:56.442Z,877.26
2019-03-04T05:29:56.423Z,877.22
2019-03-04T05:30:56.407Z,877.20
2019-03-04T05:31:56.388Z,877.14
2019-03-04T05:32:56.379Z,877.09
2019-03-04T05:33:56.363Z,877.11
2019-03-04T05:34:56.339Z,877.14
2019-03-04T05:35:56.325Z,877.06
2019-03-04T05:36:56.831Z,877.08
2019-03-04T05:37:56.298Z,877.04
2019-03-04T05:38:56.282Z,877.05
2019-03-04T05:39:56.265Z,876.93
2019-03-04T05:40:56.272Z,876.96
2019-03-04T05:41:56.236Z,876.94
2019-03-04T05:42:56.230Z,876.94
2019-03-04T05:43:56.207Z,876.98
2019-03-04T05:44:56.189Z,876.99
2019-03-04T05:45:56.176Z,876.98
2019-03-04T05:46:56.169Z,876.98
2019-03-04T05:47:56.143Z,876.91
2019-03-04T05:48:56.129Z,876.97
2019-03-04T05:49:56.113Z,876.96
2019-03-04T05:50:56.101Z,876.98
2019-03-04T05:51:56.089Z,876.97
2019-03-04T05:52:56.071Z,876.91
2019-03-04T05:53:56.046Z,876.95
2019-03-04T05:54:56.034Z,877.00
2019-03-04T05:55:56.039Z,876.94
2019-03-04T05:56:56.020Z,876.92
2019-03-04T05:57:55.994Z,876.97
2019-03-04T05:58:55.991Z,876.93
2019-03-04T05:59:55.965Z,876.87
2019-03-04T06:00:55.943Z,876.81
2019-03-04T06:01:55.929Z,876.78
2019-03-04T06:02:55.913Z,876.86
2019-03-04T06:03:55.895Z,876.78
2019-03-04T06:04:55.882Z,876.82
2019-03-04T06:05:55.864Z,876.77
2019-03-04T06:06:55.852Z,876.80
2019-03-04T06:07:55.832Z,876.74
2019-03-04T06:08:55.818Z,876.78
2019-03-04T06:09:55.805Z,876.76
2019-03-04T06:10:55.787Z,876.75
2019-03-04T06:11:55.777Z,876.74
2019-03-04T06:12:55.760Z,876.73
2019-03-04T06:13:55.745Z,876.73
2019-03-04T06:14:55.723Z,876.74
2019-03-04T06:15:55.719Z,876.62
2019-03-04T06:16:55.695Z,876.70
2019-03-04T06:17:55.676Z,876.74
2019-03-04T06:18:55.670Z,876.77
2019-03-04T06:19:55.650Z,876.75
2019-03-04T06:20:55.630Z,876.82
2019-03-04T06:21:55.618Z,876.81
2019-03-04T06:22:55.602Z,876.82
2019-03-04T06:23:55.584Z,876.87
2019-03-04T06:24:55.574Z,876.88
2019-03-04T06:25:55.561Z,876.83
2019-03-04T06:26:55.537Z,876.79
2019-03-04T06:27:55.525Z,876.71
2019-03-04T06:28:55.505Z,876.68
2019-03-04T06:29:55.491Z,876.65
2019-03-04T06:30:55.486Z,876.60
2019-03-04T06:31:55.464Z,876.47
2019-03-04T06:32:55.449Z,876.41
2019-03-04T06:33:55.430Z,876.46
2019-03-04T06:34:55.416Z,876.47
2019-03-04T06:35:55.394Z,876.52
2019-03-04T06:36:55.385Z,876.51
2019-03-04T06:37:55.374Z,876.49
2019-03-04T06:38:55.355Z,876.55
2019-03-04T06:39:55.333Z,876.53
2019-03-04T06:40:55.321Z,876.54
2019-03-04T06:41:55.309Z,876.51
2019-03-04T06:42:55.290Z,876.46
2019-03-04T06:43:55.276Z,876.35
2019-03-04T06:44:55.304Z,876.36
2019-03-04T06:45:55.242Z,876.41
2019-03-04T06:46:55.230Z,876.39
2019-03-04T06:47:55.220Z,876.42
2019-03-04T06:48:55.199Z,876.34
2019-03-04T06:49:55.179Z,876.25
2019-03-04T06:50:55.171Z,876.25
2019-03-04T06:51:55.156Z,876.22
2019-03-04T06:52:55.139Z,876.16
2019-03-04T06:53:55.119Z,876.15
2019-03-04T06:54:55.106Z,876.11
2019-03-04T06:55:55.085Z,876.09
2019-03-04T06:56:55.072Z,876.11
2019-03-04T06:57:55.068Z,876.04
2019-03-04T06:58:55.034Z,876.03
2019-03-04T06:59:55.026Z,875.98
2019-03-04T07:00:55.011Z,875.93
2019-03-04T07:01:54.992Z,875.97
2019-03-04T07:02:54.981Z,876.03
2019-03-04T07:03:54.968Z,876.11
2019-03-04T07:04:54.949Z,876.09
2019-03-04T07:05:54.934Z,876.06
2019-03-04T07:06:54.919Z,876.11
2019-03-04T07:07:54.901Z,876.21
2019-03-04T07:08:54.888Z,876.20
2019-03-04T07:09:54.871Z,876.22
2019-03-04T07:10:54.853Z,876.26
2019-03-04T07:11:54.845Z,876.28
2019-03-04T07:12:54.831Z,876.26
2019-03-04T07:13:54.808Z,876.25
2019-03-04T07:14:54.796Z,876.31
2019-03-04T07:15:54.778Z,876.34
2019-03-04T07:16:54.764Z,876.38
2019-03-04T07:17:54.748Z,876.41
2019-03-04T07:18:54.732Z,876.39
2019-03-04T07:19:54.720Z,876.34
2019-03-04T07:20:54.702Z,876.36
2019-03-04T07:21:54.691Z,876.47
2019-03-04T07:22:54.671Z,876.56
2019-03-04T07:23:54.653Z,876.54
2019-03-04T07:24:54.645Z,876.56
2019-03-04T07:25:54.625Z,876.57
2019-03-04T07:26:54.613Z,876.55
2019-03-04T07:27:54.602Z,876.54
2019-03-04T07:28:54.579Z,876.56
2019-03-04T07:29:54.565Z,876.43
2019-03-04T07:30:54.547Z,876.43
2019-03-04T07:31:54.541Z,876.42
2019-03-04T07:32:54.521Z,876.36
2019-03-04T07:33:54.498Z,876.38
2019-03-04T07:34:54.490Z,876.33
2019-03-04T07:35:54.472Z,876.41
2019-03-04T07:36:54.460Z,876.42
2019-03-04T07:37:54.438Z,876.41
2019-03-04T07:38:54.428Z,876.36
2019-03-04T07:39:54.409Z,876.42
2019-03-04T07:40:54.397Z,876.45
2019-03-04T07:41:54.384Z,876.51
2019-03-04T07:42:54.362Z,876.54
2019-03-04T07:43:54.353Z,876.59
2019-03-04T07:44:54.329Z,876.64
2019-03-04T07:45:54.317Z,876.63
2019-03-04T07:46:54.304Z,876.61
2019-03-04T07:47:54.294Z,876.51
2019-03-04T07:48:54.276Z,876.61
2019-03-04T07:49:54.255Z,876.59
2019-03-04T07:50:54.245Z,876.55
2019-03-04T07:51:54.234Z,876.53
2019-03-04T07:52:54.217Z,876.56
2019-03-04T07:53:54.203Z,876.60
2019-03-04T07:54:54.188Z,876.56
2019-03-04T07:55:54.172Z,876.58
2019-03-04T07:56:54.151Z,876.59
2019-03-04T07:57:54.147Z,876.62
2019-03-04T07:58:54.123Z,876.64
2019-03-04T07:59:54.115Z,876.61
2019-03-04T08:00:54.097Z,876.53
2019-03-04T08:01:54.082Z,876.47
2019-03-04T08:02:54.062Z,876.43
2019-03-04T08:03:54.050Z,876.44
2019-03-04T08:04:54.040Z,876.44
2019-03-04T08:05:54.024Z,876.49
2019-03-04T08:06:54.006Z,876.41
2019-03-04T08:07:53.992Z,876.44
2019-03-04T08:08:53.976Z,876.42
2019-03-04T08:09:53.968Z,876.44
2019-03-04T08:10:53.953Z,876.48
2019-03-04T08:11:53.937Z,876.46
2019-03-04T08:12:53.924Z,876.42
2019-03-04T08:13:53.913Z,876.40
2019-03-04T08:14:53.895Z,876.44
2019-03-04T08:15:53.877Z,876.39
2019-03-04T08:16:53.867Z,876.45
2019-03-04T08:17:53.846Z,876.41
2019-03-04T08:18:53.840Z,876.37
2019-03-04T08:19:53.827Z,876.38
2019-03-04T08:20:53.814Z,876.36
2019-03-04T08:21:53.794Z,876.41
2019-03-04T08:22:53.792Z,876.42
2019-03-04T08:23:53.776Z,876.37
2019-03-04T08:24:53.752Z,876.35
2019-03-04T08:25:53.737Z,876.39
2019-03-04T08:26:53.725Z,876.45
2019-03-04T08:27:53.715Z,876.42
2019-03-04T08:28:53.699Z,876.40
2019-03-04T08:29:53.686Z,876.40
2019-03-04T08:30:53.670Z,876.32
2019-03-04T08:31:53.654Z,876.32
2019-03-04T08:32:53.638Z,876.32
2019-03-04T08:33:53.635Z,876.33
2019-03-04T08:34:53.617Z,876.39
2019-03-04T08:35:53.599Z,876.40
2019-03-04T08:36:53.587Z,876.38
2019-03-04T08:37:53.574Z,876.36
2019-03-04T08:38:53.565Z,876.32
2019-03-04T08:39:53.548Z,876.38
2019-03-04T08:40:53.541Z,876.37
2019-03-04T08:41:53.521Z,876.38
2019-03-04T08:42:53.508Z,876.39
2019-03-04T08:43:53.495Z,876.37
2019-03-04T08:44:53.486Z,876.35
2019-03-04T08:45:53.466Z,876.34
2019-03-04T08:46:53.458Z,876.30
2019-03-04T08:47:53.437Z,876.28
2019-03-04T08:48:53.432Z,876.30
2019-03-04T08:49:53.415Z,876.31
2019-03-04T08:50:53.403Z,876.30
2019-03-04T08:51:53.388Z,876.22
2019-03-04T08:52:53.389Z,876.19
2019-03-04T08:53:53.360Z,876.14
2019-03-04T08:54:53.353Z,876.14
2019-03-04T08:55:53.344Z,876.15
2019-03-04T08:57:03.259Z,876.11
2019-03-04T08:57:53.317Z,876.05
2019-03-04T08:58:53.301Z,876.00
2019-03-04T08:59:53.289Z,875.91
2019-03-04T09:00:53.275Z,875.90
2019-03-04T09:01:53.267Z,875.92
2019-03-04T09:02:53.253Z,875.94
2019-03-04T09:03:53.241Z,875.89
2019-03-04T09:04:53.229Z,875.81
2019-03-04T09:05:53.213Z,875.70
2019-03-04T09:06:53.198Z,875.69
2019-03-04T09:07:53.193Z,875.75
2019-03-04T09:08:53.174Z,875.66
2019-03-04T09:09:53.164Z,875.59
2019-03-04T09:10:53.157Z,875.67
2019-03-04T09:11:53.140Z,875.71
2019-03-04T09:12:53.124Z,875.71
2019-03-04T09:13:53.113Z,875.78
2019-03-04T09:14:53.109Z,875.84
2019-03-04T09:15:53.093Z,875.74
2019-03-04T09:16:53.079Z,875.67
2019-03-04T09:17:53.078Z,875.59
2019-03-04T09:18:53.062Z,875.59
2019-03-04T09:19:53.043Z,875.62
2019-03-04T09:20:53.047Z,875.52
2019-03-04T09:21:53.023Z,875.42
2019-03-04T09:22:53.012Z,875.42
2019-03-04T09:23:53.001Z,875.39
2019-03-04T09:24:52.986Z,875.28
2019-03-04T09:25:52.974Z,875.21
2019-03-04T09:26:52.967Z,875.26
2019-03-04T09:27:52.952Z,875.25
2019-03-04T09:28:52.943Z,875.34
2019-03-04T09:29:52.932Z,875.38
2019-03-04T09:30:52.917Z,875.37
2019-03-04T09:31:52.911Z,875.42
2019-03-04T09:32:52.897Z,875.46
2019-03-04T09:33:52.887Z,875.43
2019-03-04T09:34:52.871Z,875.48
2019-03-04T09:35:52.859Z,875.50
2019-03-04T09:36:52.855Z,875.46
2019-03-04T09:37:52.834Z,875.51
2019-03-04T09:38:52.826Z,875.55
2019-03-04T09:39:52.818Z,875.58
2019-03-04T09:40:52.806Z,875.55
2019-03-04T09:41:52.799Z,875.46
2019-03-04T09:42:52.787Z,875.43
2019-03-04T09:43:52.770Z,875.32
2019-03-04T09:44:52.762Z,875.23
2019-03-04T09:45:52.750Z,875.15
2019-03-04T09:46:52.739Z,875.23
2019-03-04T09:47:52.731Z,875.35
2019-03-04T09:48:52.717Z,875.39
2019-03-04T09:49:52.700Z,875.31
2019-03-04T09:50:52.695Z,875.25
2019-03-04T09:51:52.684Z,875.22
2019-03-04T09:52:52.678Z,875.27
2019-03-04T09:53:52.667Z,875.39
2019-03-04T09:54:52.653Z,875.46
2019-03-04T09:55:52.641Z,875.47
2019-03-04T09:56:52.631Z,875.45
2019-03-04T09:57:52.625Z,875.46
2019-03-04T09:58:52.611Z,875.47
2019-03-04T09:59:52.599Z,875.48
2019-03-04T10:00:52.603Z,875.49
2019-03-04T10:01:52.578Z,875.42
2019-03-04T10:02:52.564Z,875.33
2019-03-04T10:03:52.552Z,875.32
2019-03-04T10:04:52.548Z,875.37
2019-03-04T10:05:52.532Z,875.35
2019-03-04T10:06:52.525Z,875.36
2019-03-04T10:07:52.514Z,875.29
2019-03-04T10:08:52.510Z,875.35
2019-03-04T10:09:52.490Z,875.30
2019-03-04T10:10:52.483Z,875.27
2019-03-04T10:11:52.475Z,875.23
2019-03-04T10:12:52.471Z,875.17
2019-03-04T10:13:52.452Z,875.19
2019-03-04T10:14:52.445Z,875.20
2019-03-04T10:15:52.440Z,875.20
2019-03-04T10:16:52.421Z,875.17
2019-03-04T10:17:52.406Z,875.14
2019-03-04T10:18:52.398Z,875.11
2019-03-04T10:19:52.388Z,875.06
2019-03-04T10:20:52.380Z,875.02
2019-03-04T10:21:52.365Z,875.03
2019-03-04T10:22:52.475Z,875.04
2019-03-04T10:23:52.365Z,875.06
2019-03-04T10:24:53.009Z,875.06
2019-03-04T10:25:53.008Z,875.11
2019-03-04T10:26:52.312Z,875.12
2019-03-04T10:27:52.305Z,875.10
2019-03-04T10:28:52.306Z,875.08
2019-03-04T10:29:52.286Z,875.08
2019-03-04T10:30:52.272Z,875.13
2019-03-04T10:31:52.258Z,875.22
2019-03-04T10:32:52.254Z,875.14
2019-03-04T10:33:52.252Z,875.09
2019-03-04T10:34:52.227Z,875.08
2019-03-04T10:35:52.221Z,875.17
2019-03-04T10:36:52.211Z,875.16
2019-03-04T10:37:52.203Z,875.24
2019-03-04T10:38:52.186Z,875.04
2019-03-04T10:39:52.179Z,875.06
2019-03-04T10:40:52.167Z,875.03
2019-03-04T10:41:52.154Z,875.06
2019-03-04T10:42:52.142Z,875.13
2019-03-04T10:43:52.130Z,875.15
2019-03-04T10:44:52.122Z,875.16
2019-03-04T10:45:52.108Z,875.14
2019-03-04T10:46:52.097Z,875.05
2019-03-04T10:47:52.082Z,875.02
2019-03-04T10:48:52.079Z,875.00
2019-03-04T10:49:52.065Z,875.08
2019-03-04T10:50:52.055Z,875.12
2019-03-04T10:51:52.049Z,875.16
2019-03-04T10:52:52.037Z,875.13
2019-03-04T10:53:52.028Z,875.12
2019-03-04T10:54:52.014Z,875.07
2019-03-04T10:55:52.003Z,874.98
2019-03-04T10:56:51.996Z,874.97
2019-03-04T10:57:51.985Z,875.01
2019-03-04T10:58:51.989Z,875.13
2019-03-04T10:59:51.959Z,875.13
2019-03-04T11:00:51.950Z,875.14
2019-03-04T11:01:51.941Z,875.08
2019-03-04T11:02:51.927Z,875.04
2019-03-04T11:03:51.919Z,874.99
2019-03-04T11:04:51.907Z,874.90
2019-03-04T11:05:51.899Z,874.84
2019-03-04T11:06:51.886Z,874.87
2019-03-04T11:07:51.878Z,874.91
2019-03-04T11:08:51.866Z,874.90
2019-03-04T11:09:51.856Z,874.88
2019-03-04T11:10:51.840Z,874.86
2019-03-04T11:11:51.846Z,874.78
2019-03-04T11:12:51.825Z,874.79
2019-03-04T11:13:51.821Z,874.78
2019-03-04T11:14:51.807Z,874.75
2019-03-04T11:15:51.795Z,874.74
2019-03-04T11:16:51.783Z,874.67
2019-03-04T11:17:51.775Z,874.62
2019-03-04T11:18:51.767Z,874.62
2019-03-04T11:19:51.756Z,874.61
2019-03-04T11:20:51.747Z,874.59
2019-03-04T11:21:51.742Z,874.56
2019-03-04T11:22:51.897Z,874.73
2019-03-04T11:23:51.716Z,874.72
2019-03-04T11:24:51.706Z,874.74
2019-03-04T11:25:51.701Z,874.76
2019-03-04T11:26:51.685Z,874.76
2019-03-04T11:27:51.683Z,874.75
2019-03-04T11:28:51.669Z,874.73
2019-03-04T11:29:51.652Z,874.74
2019-03-04T11:30:51.641Z,874.80
2019-03-04T11:31:51.638Z,874.76
2019-03-04T11:32:51.634Z,874.73
2019-03-04T11:33:51.628Z,874.65
2019-03-04T11:34:51.612Z,874.62
2019-03-04T11:35:51.601Z,874.58
2019-03-04T11:36:51.586Z,874.54
2019-03-04T11:37:51.589Z,874.57
2019-03-04T11:38:51.569Z,874.60
2019-03-04T11:39:51.564Z,874.57
2019-03-04T11:40:51.553Z,874.59
2019-03-04T11:41:51.580Z,874.64
2019-03-04T11:42:51.536Z,874.65
2019-03-04T11:43:51.523Z,874.55
2019-03-04T11:44:51.525Z,874.42
2019-03-04T11:45:51.504Z,874.42
2019-03-04T11:46:51.494Z,874.40
2019-03-04T11:47:51.488Z,874.38
2019-03-04T11:48:51.480Z,874.43
2019-03-04T11:49:53.347Z,874.39
2019-03-04T11:50:51.470Z,874.35
2019-03-04T11:51:51.457Z,874.25
2019-03-04T11:52:51.443Z,874.26
2019-03-04T11:53:51.427Z,874.30
2019-03-04T11:54:51.420Z,874.26
2019-03-04T11:55:53.460Z,874.30
2019-03-04T11:56:51.405Z,874.32
2019-03-04T11:57:51.398Z,874.31
2019-03-04T11:58:51.386Z,874.29
2019-03-04T11:59:51.378Z,874.26
2019-03-04T12:00:51.376Z,874.22
2019-03-04T12:01:51.353Z,874.30
2019-03-04T12:02:51.350Z,874.25
2019-03-04T12:03:51.349Z,874.25
2019-03-04T12:04:51.333Z,874.28
2019-03-04T12:05:51.318Z,874.34
2019-03-04T12:06:51.307Z,874.25
2019-03-04T12:07:51.495Z,874.20
2019-03-04T12:08:51.290Z,874.19
2019-03-04T12:09:51.280Z,874.17
2019-03-04T12:10:51.267Z,874.25
2019-03-04T12:11:51.252Z,874.23
2019-03-04T12:12:51.257Z,874.20
2019-03-04T12:13:51.237Z,874.25
2019-03-04T12:14:51.228Z,874.30
2019-03-04T12:15:51.208Z,874.23
2019-03-04T12:16:51.198Z,874.19
2019-03-04T12:17:51.191Z,874.18
2019-03-04T12:18:51.197Z,874.25
2019-03-04T12:19:51.175Z,874.28
2019-03-04T12:20:51.162Z,874.25
2019-03-04T12:21:51.145Z,874.22
2019-03-04T12:22:51.137Z,874.22
2019-03-04T12:23:51.124Z,874.15
2019-03-04T12:24:51.113Z,874.16
2019-03-04T12:25:51.101Z,874.16
2019-03-04T12:26:51.097Z,874.20
2019-03-04T12:27:51.083Z,874.22
2019-03-04T12:28:51.066Z,874.27
2019-03-04T12:29:51.055Z,874.24
2019-03-04T12:30:51.047Z,874.28
2019-03-04T12:31:51.034Z,874.38
2019-03-04T12:32:51.025Z,874.33
2019-03-04T12:33:51.011Z,874.28
2019-03-04T12:34:50.997Z,874.31
2019-03-04T12:35:50.987Z,874.27